Tinley Park, IL (60477)

12:19 CST 29. Leden 2015 (GMT -0600)
Chantilly | Change Station
CLOSE
Current Station
Osobní povětrnostní stanice
Location: Tinley Park, IL
Nadmořská výška: 709 ft
Poblíž povětrnostní stanice

Výška 709 ft 41.58 °N, 87.82 °W | Updated 12 minutes ago

Zataženo
Zataženo
34.3 °F
Pocit jako 30 °F
S
4.7
Vítr proměnlivý Vítr od SZ

Dnes
Vysoké -- | Nízké -- °F
--% Možnost srážek
Včera
Vysoké -- | Nízké -- °F
Precip. -- inčů
7:06 AM 5:02 PM
Dorůstající měsíc, 76% visible
Tlak 29.91 inčů
Viditelnost 7.0 mílí
Zataženo Zataženo 2200 ft
Ochlazování větrem 30 °F
Rosný bod 29 °F
Vlhkost 81%
Dešťové srážky 0.00 inčů
Sněhová pokrývka Není k dispozici
UV záření 1 ze 12
Pyl .10 ze 12
Kvalita ovzduší Není k dispozici
Flu Activity Není k dispozici
METAR KIGQ 291755Z AUTO 32014G19KT 7SM OVC022 02/M02 A2991 RMK AO2 T00191024 10025 21002

More Conditions Fewer Conditions

Tlak 29.91 inčů
Viditelnost 7.0 mílí
Zataženo Zataženo 2200 ft
Ochlazování větrem 30 °F
Rosný bod 29 °F
Vlhkost 81%
Dešťové srážky 0.00 inčů
Sněhová pokrývka Není k dispozici
UV záření 1 ze 12
Pyl .10 ze 12
Kvalita ovzduší Není k dispozici
Flu Activity Není k dispozici
METAR KIGQ 291755Z AUTO 32014G19KT 7SM OVC022 02/M02 A2991 RMK AO2 T00191024 10025 21002

More Conditions Fewer Conditions

10-Day Weather Forecast

Almanac

Astronomie

Jan. 29, 2015 Východ Západ
Skutečný čas
Občanský soumrak
Námořní soumrak
Astronomický soumrak
Měsíc
Délka denního světla
Délka dne
Tomorrow will be .
, % of the Moon is Illuminated

Dnešní extrémy

State Highs State Lows

Community

WunderPhotos

Upload Photos

1,791,512 snímků staženo!

WunderBlogs® & News

Nearby

Kvalita ovzduší

  Kvalita ovzduší Index kvality ovzduší Polutant
Not available.

Výška sněhu

Station Hloubka Nadmořská výška

Seizmická činnost

Město Distance Mag. Čas & datum
Minimální zobrazený rozsah je 2.5.

Pobřežní teplota vody

Lokalita Teplota

Poblíž povětrnostní stanice